Airfield :
LOGIN :

Register | Disclaimer

   EN    FR    IT 

 










Legend :    VFR   Marginal VFR   IFR   Intensive IFR   Very Intensive IFR
Visi :
Ceiling :
>= 8 km
>= 3000ft
5 to 8 km
1000 to 3000 ft
1500m to 5 km
500 to 1000 ft
800 to 1500m
200 to 500 ft
< 800m
< 200 ft
Symbols :   Thunderstorms  Fog  Heavy snow  Heavy precipitations  Wind > 20 kt
SIGMETs :     Misc.  Thunderstorms  Icing  Turbulence  Mountain Waves  Volcanic Ashes






- Airport Elevation : 25 ft
- IATA code : QCY


EGXC - RAF Coningsby

CURRENT METAR :
  • 212050Z 11008KT 6000 HZ OVC009 06/04 Q1001 RMK GRN

EXPIRED METARs :
  • 211950Z 09009KT 8000 HZ OVC011 05/04 Q1001 RMK GRN
  • 211920Z 10009KT 8000 HZ BKN012 OVC050 05/03 Q1002 BECMG 7000 HZ BKN014 RMK GRN BECMG GRN
  • 211903Z 11009KT 9000 HZ BKN014 OVC050 05/03 Q1002 BECMG 7000 HZ RMK GRN BECMG GRN
  • 211850Z 11010KT 9000 HZ BKN015 OVC050 05/03 Q1002 BECMG 7000 HZ BKN014 RMK WHT BECMG GRN
  • 211820Z 11009KT 9000 HZ BKN018 BKN050 05/03 Q1002 BECMG 7000 HZ BKN014 RMK WHT BECMG GRN

TAF TAF EGXC
Valid from the 21 at 21:00 until the 22 at 15:00 UTC


211936Z 2121/2215 11008KT 7000 BR BKN010
PROB40 2121/2206 4000
PROB30
TEMPO 2121/2203 BKN004
PROB30
TEMPO 2203/2208 3000 RADZ BKN004
BECMG 2208/2210 9999 NSW FEW022
PROB30
TEMPO 2212/2215 SCT015



MET'MAP, your aeronautical weather chart ! - Copyright ORBIFLY December 2007 - Disclaimer

ORBIFLY MET'MAP TEAM :

Programming & Development : Alexandra Zaïnal
Concept & Development : Baudouin d'Aumeries
Co-Development & Prog : Marc-Olivier Méhu
Technical & hardware support : Manuel Goepfert

Contact : metmap@orbifly.com




SOURCES & CREDITS :

   NOAA